sensor_id;sensor_type;location;lat;lon;timestamp;temperature;humidity
3262;DHT22;1643;47.746;9.000;2023-06-22T00:00:53;22.40;99.90
3262;DHT22;1643;47.746;9.000;2023-06-22T00:03:20;22.40;99.90
3262;DHT22;1643;47.746;9.000;2023-06-22T00:05:46;22.50;99.90
3262;DHT22;1643;47.746;9.000;2023-06-22T00:08:12;22.50;99.90
3262;DHT22;1643;47.746;9.000;2023-06-22T00:10:38;22.60;99.90
3262;DHT22;1643;47.746;9.000;2023-06-22T00:13:06;22.40;99.90
3262;DHT22;1643;47.746;9.000;2023-06-22T00:15:32;22.40;99.90
3262;DHT22;1643;47.746;9.000;2023-06-22T00:17:58;22.30;99.90
3262;DHT22;1643;47.746;9.000;2023-06-22T00:20:25;22.30;99.90
3262;DHT22;1643;47.746;9.000;2023-06-22T00:22:55;22.30;99.90
3262;DHT22;1643;47.746;9.000;2023-06-22T00:25:21;22.30;99.90
3262;DHT22;1643;47.746;9.000;2023-06-22T00:27:47;22.20;99.90
3262;DHT22;1643;47.746;9.000;2023-06-22T00:30:13;22.10;99.90
3262;DHT22;1643;47.746;9.000;2023-06-22T00:32:39;22.10;99.90
3262;DHT22;1643;47.746;9.000;2023-06-22T00:35:05;22.10;99.90
3262;DHT22;1643;47.746;9.000;2023-06-22T00:37:30;22.10;99.90
3262;DHT22;1643;47.746;9.000;2023-06-22T00:39:56;22.10;99.90
3262;DHT22;1643;47.746;9.000;2023-06-22T00:42:22;22.10;99.90
3262;DHT22;1643;47.746;9.000;2023-06-22T00:44:48;22.00;99.90
3262;DHT22;1643;47.746;9.000;2023-06-22T00:47:16;22.00;99.90
3262;DHT22;1643;47.746;9.000;2023-06-22T00:49:42;21.90;99.90
3262;DHT22;1643;47.746;9.000;2023-06-22T00:52:09;21.90;99.90
3262;DHT22;1643;47.746;9.000;2023-06-22T00:54:42;21.90;99.90
3262;DHT22;1643;47.746;9.000;2023-06-22T00:57:12;21.90;99.90
3262;DHT22;1643;47.746;9.000;2023-06-22T00:59:45;21.90;99.90
3262;DHT22;1643;47.746;9.000;2023-06-22T01:02:11;21.90;99.90
3262;DHT22;1643;47.746;9.000;2023-06-22T01:04:38;21.90;99.90
3262;DHT22;1643;47.746;9.000;2023-06-22T01:07:30;21.90;99.90
3262;DHT22;1643;47.746;9.000;2023-06-22T01:10:14;21.90;99.90
3262;DHT22;1643;47.746;9.000;2023-06-22T01:12:53;21.90;99.90
3262;DHT22;1643;47.746;9.000;2023-06-22T01:15:57;21.80;99.90
3262;DHT22;1643;47.746;9.000;2023-06-22T01:18:27;21.90;99.90
3262;DHT22;1643;47.746;9.000;2023-06-22T01:20:54;21.80;99.90
3262;DHT22;1643;47.746;9.000;2023-06-22T01:26:25;21.80;99.90
3262;DHT22;1643;47.746;9.000;2023-06-22T01:28:55;21.80;99.90
3262;DHT22;1643;47.746;9.000;2023-06-22T01:31:25;21.70;99.90
3262;DHT22;1643;47.746;9.000;2023-06-22T01:33:54;21.70;99.90
3262;DHT22;1643;47.746;9.000;2023-06-22T01:36:21;21.70;99.90
3262;DHT22;1643;47.746;9.000;2023-06-22T01:38:48;21.60;99.90
3262;DHT22;1643;47.746;9.000;2023-06-22T01:41:15;21.60;99.90
3262;DHT22;1643;47.746;9.000;2023-06-22T01:43:42;21.60;99.90
3262;DHT22;1643;47.746;9.000;2023-06-22T01:46:09;21.60;99.90
3262;DHT22;1643;47.746;9.000;2023-06-22T01:48:35;21.60;99.90
3262;DHT22;1643;47.746;9.000;2023-06-22T01:51:02;21.60;99.90
3262;DHT22;1643;47.746;9.000;2023-06-22T01:53:27;21.60;99.90
3262;DHT22;1643;47.746;9.000;2023-06-22T01:55:53;21.60;99.90
3262;DHT22;1643;47.746;9.000;2023-06-22T01:58:20;21.70;99.90
3262;DHT22;1643;47.746;9.000;2023-06-22T02:00:55;21.60;99.90
3262;DHT22;1643;47.746;9.000;2023-06-22T02:03:32;21.60;99.90
3262;DHT22;1643;47.746;9.000;2023-06-22T02:06:05;21.50;99.90
3262;DHT22;1643;47.746;9.000;2023-06-22T02:08:40;21.50;99.90
3262;DHT22;1643;47.746;9.000;2023-06-22T02:11:08;21.50;99.90
3262;DHT22;1643;47.746;9.000;2023-06-22T02:13:36;21.50;99.90
3262;DHT22;1643;47.746;9.000;2023-06-22T02:16:01;21.50;99.90
3262;DHT22;1643;47.746;9.000;2023-06-22T02:18:27;21.50;99.90
3262;DHT22;1643;47.746;9.000;2023-06-22T02:20:53;21.50;99.90
3262;DHT22;1643;47.746;9.000;2023-06-22T02:23:19;21.50;99.90
3262;DHT22;1643;47.746;9.000;2023-06-22T02:25:45;21.40;99.90
3262;DHT22;1643;47.746;9.000;2023-06-22T02:28:10;21.40;99.90
3262;DHT22;1643;47.746;9.000;2023-06-22T02:30:36;21.40;99.90
3262;DHT22;1643;47.746;9.000;2023-06-22T02:33:02;21.30;99.90
3262;DHT22;1643;47.746;9.000;2023-06-22T02:35:28;21.30;99.90
3262;DHT22;1643;47.746;9.000;2023-06-22T02:38:00;21.30;99.90
3262;DHT22;1643;47.746;9.000;2023-06-22T02:40:26;21.40;99.90
3262;DHT22;1643;47.746;9.000;2023-06-22T02:42:52;21.30;99.90
3262;DHT22;1643;47.746;9.000;2023-06-22T02:45:17;21.30;99.90
3262;DHT22;1643;47.746;9.000;2023-06-22T02:47:43;21.30;99.90
3262;DHT22;1643;47.746;9.000;2023-06-22T02:50:09;21.30;99.90
3262;DHT22;1643;47.746;9.000;2023-06-22T02:52:35;21.20;99.90
3262;DHT22;1643;47.746;9.000;2023-06-22T02:55:01;21.20;99.90
3262;DHT22;1643;47.746;9.000;2023-06-22T02:57:26;21.10;99.90
3262;DHT22;1643;47.746;9.000;2023-06-22T02:59:52;21.10;99.90
3262;DHT22;1643;47.746;9.000;2023-06-22T03:02:18;21.00;99.90
3262;DHT22;1643;47.746;9.000;2023-06-22T03:04:46;21.00;99.90
3262;DHT22;1643;47.746;9.000;2023-06-22T03:07:15;21.00;99.90
3262;DHT22;1643;47.746;9.000;2023-06-22T03:09:40;21.00;99.90
3262;DHT22;1643;47.746;9.000;2023-06-22T03:12:07;21.00;99.90
3262;DHT22;1643;47.746;9.000;2023-06-22T03:14:33;21.10;99.90
3262;DHT22;1643;47.746;9.000;2023-06-22T03:16:59;21.00;99.90
3262;DHT22;1643;47.746;9.000;2023-06-22T03:19:28;21.00;99.90
3262;DHT22;1643;47.746;9.000;2023-06-22T03:21:55;21.00;99.90
3262;DHT22;1643;47.746;9.000;2023-06-22T03:24:20;21.00;99.90
3262;DHT22;1643;47.746;9.000;2023-06-22T03:26:46;21.00;99.90
3262;DHT22;1643;47.746;9.000;2023-06-22T03:29:12;21.10;99.90
3262;DHT22;1643;47.746;9.000;2023-06-22T03:31:38;21.10;99.90
3262;DHT22;1643;47.746;9.000;2023-06-22T03:34:03;21.10;99.90
3262;DHT22;1643;47.746;9.000;2023-06-22T03:36:30;21.00;99.90
3262;DHT22;1643;47.746;9.000;2023-06-22T03:38:55;21.00;99.90
3262;DHT22;1643;47.746;9.000;2023-06-22T03:41:21;21.00;99.90
3262;DHT22;1643;47.746;9.000;2023-06-22T03:43:47;21.10;99.90
3262;DHT22;1643;47.746;9.000;2023-06-22T03:46:13;21.00;99.90
3262;DHT22;1643;47.746;9.000;2023-06-22T03:48:38;21.00;99.90
3262;DHT22;1643;47.746;9.000;2023-06-22T03:51:04;21.00;99.90
3262;DHT22;1643;47.746;9.000;2023-06-22T03:53:30;21.00;99.90
3262;DHT22;1643;47.746;9.000;2023-06-22T03:55:55;21.00;99.90
3262;DHT22;1643;47.746;9.000;2023-06-22T03:58:21;20.90;99.90
3262;DHT22;1643;47.746;9.000;2023-06-22T04:00:48;21.00;99.90
3262;DHT22;1643;47.746;9.000;2023-06-22T04:03:15;21.00;99.90
3262;DHT22;1643;47.746;9.000;2023-06-22T04:05:41;21.00;99.90
3262;DHT22;1643;47.746;9.000;2023-06-22T04:08:07;21.00;99.90
3262;DHT22;1643;47.746;9.000;2023-06-22T04:10:33;21.00;99.90
3262;DHT22;1643;47.746;9.000;2023-06-22T04:12:59;21.00;99.90
3262;DHT22;1643;47.746;9.000;2023-06-22T04:15:25;21.00;99.90
3262;DHT22;1643;47.746;9.000;2023-06-22T04:17:50;21.00;99.90
3262;DHT22;1643;47.746;9.000;2023-06-22T04:20:16;21.00;99.90
3262;DHT22;1643;47.746;9.000;2023-06-22T04:22:42;21.00;99.90
3262;DHT22;1643;47.746;9.000;2023-06-22T04:25:08;21.00;99.90
3262;DHT22;1643;47.746;9.000;2023-06-22T04:27:34;20.90;99.90
3262;DHT22;1643;47.746;9.000;2023-06-22T04:30:06;21.00;99.90
3262;DHT22;1643;47.746;9.000;2023-06-22T04:32:33;21.00;99.90
3262;DHT22;1643;47.746;9.000;2023-06-22T04:34:58;21.00;99.90
3262;DHT22;1643;47.746;9.000;2023-06-22T04:37:26;21.00;99.90
3262;DHT22;1643;47.746;9.000;2023-06-22T04:39:51;21.00;99.90
3262;DHT22;1643;47.746;9.000;2023-06-22T04:42:17;21.00;99.90
3262;DHT22;1643;47.746;9.000;2023-06-22T04:44:43;21.00;99.90
3262;DHT22;1643;47.746;9.000;2023-06-22T04:47:08;21.00;99.90
3262;DHT22;1643;47.746;9.000;2023-06-22T04:49:36;21.00;99.90
3262;DHT22;1643;47.746;9.000;2023-06-22T04:52:10;21.10;99.90
3262;DHT22;1643;47.746;9.000;2023-06-22T04:54:37;21.10;99.90
3262;DHT22;1643;47.746;9.000;2023-06-22T04:57:07;21.00;99.90
3262;DHT22;1643;47.746;9.000;2023-06-22T04:59:37;21.10;99.90
3262;DHT22;1643;47.746;9.000;2023-06-22T05:02:05;21.10;99.90
3262;DHT22;1643;47.746;9.000;2023-06-22T05:04:31;21.20;99.90
3262;DHT22;1643;47.746;9.000;2023-06-22T05:07:01;21.20;99.90
3262;DHT22;1643;47.746;9.000;2023-06-22T05:09:28;21.20;99.90
3262;DHT22;1643;47.746;9.000;2023-06-22T05:11:54;21.30;99.90
3262;DHT22;1643;47.746;9.000;2023-06-22T05:14:19;21.40;99.90
3262;DHT22;1643;47.746;9.000;2023-06-22T05:16:45;21.40;99.90
3262;DHT22;1643;47.746;9.000;2023-06-22T05:19:11;21.50;99.90
3262;DHT22;1643;47.746;9.000;2023-06-22T05:21:37;21.50;99.90
3262;DHT22;1643;47.746;9.000;2023-06-22T05:24:03;21.50;99.90
3262;DHT22;1643;47.746;9.000;2023-06-22T05:26:30;21.50;99.90
3262;DHT22;1643;47.746;9.000;2023-06-22T05:28:56;21.50;99.90
3262;DHT22;1643;47.746;9.000;2023-06-22T05:31:22;21.60;99.90
3262;DHT22;1643;47.746;9.000;2023-06-22T05:33:52;21.60;99.90
3262;DHT22;1643;47.746;9.000;2023-06-22T05:36:18;21.70;99.90
3262;DHT22;1643;47.746;9.000;2023-06-22T05:38:45;21.70;99.90
3262;DHT22;1643;47.746;9.000;2023-06-22T05:41:11;21.80;99.90
3262;DHT22;1643;47.746;9.000;2023-06-22T05:43:37;21.80;99.90
3262;DHT22;1643;47.746;9.000;2023-06-22T05:46:04;21.80;99.90
3262;DHT22;1643;47.746;9.000;2023-06-22T05:48:30;21.90;99.90
3262;DHT22;1643;47.746;9.000;2023-06-22T05:50:55;22.00;99.90
3262;DHT22;1643;47.746;9.000;2023-06-22T05:53:21;22.10;99.90
3262;DHT22;1643;47.746;9.000;2023-06-22T05:55:47;22.10;99.90
3262;DHT22;1643;47.746;9.000;2023-06-22T05:58:13;22.20;99.90
3262;DHT22;1643;47.746;9.000;2023-06-22T06:00:39;22.20;99.90
3262;DHT22;1643;47.746;9.000;2023-06-22T06:03:06;22.30;99.90
3262;DHT22;1643;47.746;9.000;2023-06-22T06:05:33;22.40;99.90
3262;DHT22;1643;47.746;9.000;2023-06-22T06:08:00;22.40;99.90
3262;DHT22;1643;47.746;9.000;2023-06-22T06:10:26;22.50;99.90
3262;DHT22;1643;47.746;9.000;2023-06-22T06:12:53;22.60;99.90
3262;DHT22;1643;47.746;9.000;2023-06-22T06:15:18;22.60;99.90
3262;DHT22;1643;47.746;9.000;2023-06-22T06:17:51;22.70;99.90
3262;DHT22;1643;47.746;9.000;2023-06-22T06:20:20;22.70;99.90
3262;DHT22;1643;47.746;9.000;2023-06-22T06:22:47;22.80;99.90
3262;DHT22;1643;47.746;9.000;2023-06-22T06:25:13;22.80;99.90
3262;DHT22;1643;47.746;9.000;2023-06-22T06:27:45;22.90;99.90
3262;DHT22;1643;47.746;9.000;2023-06-22T06:30:12;22.90;99.90
3262;DHT22;1643;47.746;9.000;2023-06-22T06:32:38;22.90;99.90
3262;DHT22;1643;47.746;9.000;2023-06-22T06:35:09;23.00;99.90
3262;DHT22;1643;47.746;9.000;2023-06-22T06:37:42;23.00;99.90
3262;DHT22;1643;47.746;9.000;2023-06-22T06:40:09;23.10;99.90
3262;DHT22;1643;47.746;9.000;2023-06-22T06:42:40;23.20;99.90
3262;DHT22;1643;47.746;9.000;2023-06-22T06:45:16;23.20;99.90
3262;DHT22;1643;47.746;9.000;2023-06-22T06:47:41;23.30;99.90
3262;DHT22;1643;47.746;9.000;2023-06-22T06:50:08;23.30;99.90
3262;DHT22;1643;47.746;9.000;2023-06-22T06:52:34;23.30;99.90
3262;DHT22;1643;47.746;9.000;2023-06-22T06:55:00;23.40;99.90
3262;DHT22;1643;47.746;9.000;2023-06-22T06:57:26;23.40;99.90
3262;DHT22;1643;47.746;9.000;2023-06-22T06:59:56;23.50;99.90
3262;DHT22;1643;47.746;9.000;2023-06-22T07:02:22;23.60;99.90
3262;DHT22;1643;47.746;9.000;2023-06-22T07:04:48;23.60;99.90
3262;DHT22;1643;47.746;9.000;2023-06-22T07:07:14;23.70;99.90
3262;DHT22;1643;47.746;9.000;2023-06-22T07:09:40;23.70;99.90
3262;DHT22;1643;47.746;9.000;2023-06-22T07:12:06;23.70;99.90
3262;DHT22;1643;47.746;9.000;2023-06-22T07:14:32;23.70;99.90
3262;DHT22;1643;47.746;9.000;2023-06-22T07:16:58;23.80;99.90
3262;DHT22;1643;47.746;9.000;2023-06-22T07:19:25;23.80;99.90
3262;DHT22;1643;47.746;9.000;2023-06-22T07:21:52;23.90;99.90
3262;DHT22;1643;47.746;9.000;2023-06-22T07:24:17;23.90;99.90
3262;DHT22;1643;47.746;9.000;2023-06-22T07:26:45;24.00;99.90
3262;DHT22;1643;47.746;9.000;2023-06-22T07:29:11;24.00;99.90
3262;DHT22;1643;47.746;9.000;2023-06-22T07:31:37;24.10;99.90
3262;DHT22;1643;47.746;9.000;2023-06-22T07:34:05;24.10;99.90
3262;DHT22;1643;47.746;9.000;2023-06-22T07:36:31;24.20;99.90
3262;DHT22;1643;47.746;9.000;2023-06-22T07:38:56;24.20;99.90
3262;DHT22;1643;47.746;9.000;2023-06-22T07:41:22;24.40;99.90
3262;DHT22;1643;47.746;9.000;2023-06-22T07:43:48;24.40;99.90
3262;DHT22;1643;47.746;9.000;2023-06-22T07:46:13;24.60;99.90
3262;DHT22;1643;47.746;9.000;2023-06-22T07:48:39;24.60;99.90
3262;DHT22;1643;47.746;9.000;2023-06-22T07:51:07;24.70;99.90
3262;DHT22;1643;47.746;9.000;2023-06-22T07:53:32;24.60;99.90
3262;DHT22;1643;47.746;9.000;2023-06-22T07:55:58;24.50;99.90
3262;DHT22;1643;47.746;9.000;2023-06-22T07:58:24;24.40;99.90
3262;DHT22;1643;47.746;9.000;2023-06-22T08:00:49;24.40;99.90
3262;DHT22;1643;47.746;9.000;2023-06-22T08:03:15;24.30;99.90
3262;DHT22;1643;47.746;9.000;2023-06-22T08:05:41;24.20;99.90
3262;DHT22;1643;47.746;9.000;2023-06-22T08:08:06;24.00;99.90
3262;DHT22;1643;47.746;9.000;2023-06-22T08:10:32;24.00;99.90
3262;DHT22;1643;47.746;9.000;2023-06-22T08:12:58;23.80;99.90
3262;DHT22;1643;47.746;9.000;2023-06-22T08:15:26;23.80;99.90
3262;DHT22;1643;47.746;9.000;2023-06-22T08:17:52;23.70;99.90
3262;DHT22;1643;47.746;9.000;2023-06-22T08:20:17;23.70;99.90
3262;DHT22;1643;47.746;9.000;2023-06-22T08:22:43;23.60;99.90
3262;DHT22;1643;47.746;9.000;2023-06-22T08:25:10;23.70;99.90
3262;DHT22;1643;47.746;9.000;2023-06-22T08:27:36;23.80;99.90
3262;DHT22;1643;47.746;9.000;2023-06-22T08:30:02;23.90;99.90
3262;DHT22;1643;47.746;9.000;2023-06-22T08:32:29;23.90;99.90
3262;DHT22;1643;47.746;9.000;2023-06-22T08:34:56;24.00;99.90
3262;DHT22;1643;47.746;9.000;2023-06-22T08:37:22;24.10;99.90
3262;DHT22;1643;47.746;9.000;2023-06-22T08:39:59;24.20;99.90
3262;DHT22;1643;47.746;9.000;2023-06-22T08:42:27;24.40;99.90
3262;DHT22;1643;47.746;9.000;2023-06-22T08:44:52;24.50;99.90
3262;DHT22;1643;47.746;9.000;2023-06-22T08:47:19;24.60;99.90
3262;DHT22;1643;47.746;9.000;2023-06-22T08:49:45;24.70;99.90
3262;DHT22;1643;47.746;9.000;2023-06-22T08:52:11;24.70;99.90
3262;DHT22;1643;47.746;9.000;2023-06-22T08:54:36;24.70;99.90
3262;DHT22;1643;47.746;9.000;2023-06-22T08:57:02;24.80;99.90
3262;DHT22;1643;47.746;9.000;2023-06-22T08:59:28;24.80;99.90
3262;DHT22;1643;47.746;9.000;2023-06-22T09:01:54;24.80;99.90
3262;DHT22;1643;47.746;9.000;2023-06-22T09:04:19;24.70;99.90
3262;DHT22;1643;47.746;9.000;2023-06-22T09:06:47;24.60;99.90
3262;DHT22;1643;47.746;9.000;2023-06-22T09:09:13;24.70;99.90
3262;DHT22;1643;47.746;9.000;2023-06-22T09:11:40;24.80;99.90
3262;DHT22;1643;47.746;9.000;2023-06-22T09:14:05;24.90;99.90
3262;DHT22;1643;47.746;9.000;2023-06-22T09:16:32;25.10;99.90
3262;DHT22;1643;47.746;9.000;2023-06-22T09:18:58;25.20;99.90
3262;DHT22;1643;47.746;9.000;2023-06-22T09:21:24;25.40;99.90
3262;DHT22;1643;47.746;9.000;2023-06-22T09:23:49;25.40;99.90
3262;DHT22;1643;47.746;9.000;2023-06-22T09:26:20;25.40;99.90
3262;DHT22;1643;47.746;9.000;2023-06-22T09:28:46;25.30;99.90
3262;DHT22;1643;47.746;9.000;2023-06-22T09:31:12;25.30;99.90
3262;DHT22;1643;47.746;9.000;2023-06-22T09:33:40;25.40;99.90
3262;DHT22;1643;47.746;9.000;2023-06-22T09:36:06;25.50;99.90
3262;DHT22;1643;47.746;9.000;2023-06-22T09:38:36;25.60;99.90
3262;DHT22;1643;47.746;9.000;2023-06-22T09:41:02;25.70;99.90
3262;DHT22;1643;47.746;9.000;2023-06-22T09:43:28;25.60;99.90
3262;DHT22;1643;47.746;9.000;2023-06-22T09:45:53;25.60;99.90
3262;DHT22;1643;47.746;9.000;2023-06-22T09:48:19;25.60;99.90
3262;DHT22;1643;47.746;9.000;2023-06-22T09:50:45;25.60;99.90
3262;DHT22;1643;47.746;9.000;2023-06-22T09:53:10;25.60;99.90
3262;DHT22;1643;47.746;9.000;2023-06-22T09:55:36;25.60;99.90
3262;DHT22;1643;47.746;9.000;2023-06-22T09:58:02;25.50;99.90
3262;DHT22;1643;47.746;9.000;2023-06-22T10:00:27;25.60;99.90
3262;DHT22;1643;47.746;9.000;2023-06-22T10:02:53;25.70;99.90
3262;DHT22;1643;47.746;9.000;2023-06-22T10:05:18;25.70;99.90
3262;DHT22;1643;47.746;9.000;2023-06-22T10:07:44;25.80;99.90
3262;DHT22;1643;47.746;9.000;2023-06-22T10:10:11;25.80;99.90
3262;DHT22;1643;47.746;9.000;2023-06-22T10:12:43;26.00;99.90
3262;DHT22;1643;47.746;9.000;2023-06-22T10:15:10;26.10;99.90
3262;DHT22;1643;47.746;9.000;2023-06-22T10:17:35;26.10;99.90
3262;DHT22;1643;47.746;9.000;2023-06-22T10:20:01;26.20;99.90
3262;DHT22;1643;47.746;9.000;2023-06-22T10:22:37;26.30;99.90
3262;DHT22;1643;47.746;9.000;2023-06-22T10:25:03;26.30;99.90
3262;DHT22;1643;47.746;9.000;2023-06-22T10:27:29;26.30;99.90
3262;DHT22;1643;47.746;9.000;2023-06-22T10:29:54;26.40;99.90
3262;DHT22;1643;47.746;9.000;2023-06-22T10:32:20;26.40;99.90
3262;DHT22;1643;47.746;9.000;2023-06-22T10:34:46;26.40;99.90
3262;DHT22;1643;47.746;9.000;2023-06-22T10:37:11;26.40;99.90
3262;DHT22;1643;47.746;9.000;2023-06-22T10:39:37;26.50;99.90
3262;DHT22;1643;47.746;9.000;2023-06-22T10:42:02;26.50;99.90
3262;DHT22;1643;47.746;9.000;2023-06-22T10:44:28;26.60;99.90
3262;DHT22;1643;47.746;9.000;2023-06-22T10:46:54;26.50;99.90
3262;DHT22;1643;47.746;9.000;2023-06-22T10:49:19;26.50;99.90
3262;DHT22;1643;47.746;9.000;2023-06-22T10:51:45;26.50;99.90
3262;DHT22;1643;47.746;9.000;2023-06-22T10:54:11;26.50;99.90
3262;DHT22;1643;47.746;9.000;2023-06-22T10:56:39;26.50;99.90
3262;DHT22;1643;47.746;9.000;2023-06-22T10:59:05;26.50;99.90
3262;DHT22;1643;47.746;9.000;2023-06-22T11:01:30;26.40;99.90
3262;DHT22;1643;47.746;9.000;2023-06-22T11:03:57;26.40;99.90
3262;DHT22;1643;47.746;9.000;2023-06-22T11:06:22;26.30;99.90
3262;DHT22;1643;47.746;9.000;2023-06-22T11:08:48;26.30;99.90
3262;DHT22;1643;47.746;9.000;2023-06-22T11:11:13;26.40;99.90
3262;DHT22;1643;47.746;9.000;2023-06-22T11:13:39;26.40;99.90
3262;DHT22;1643;47.746;9.000;2023-06-22T11:16:05;26.40;99.90
3262;DHT22;1643;47.746;9.000;2023-06-22T11:18:31;26.50;99.90
3262;DHT22;1643;47.746;9.000;2023-06-22T11:20:59;26.50;99.90
3262;DHT22;1643;47.746;9.000;2023-06-22T11:23:24;26.60;99.90
3262;DHT22;1643;47.746;9.000;2023-06-22T11:25:51;26.70;99.90
3262;DHT22;1643;47.746;9.000;2023-06-22T11:28:17;26.80;99.90
3262;DHT22;1643;47.746;9.000;2023-06-22T11:30:42;26.80;99.90
3262;DHT22;1643;47.746;9.000;2023-06-22T11:33:08;26.80;99.90
3262;DHT22;1643;47.746;9.000;2023-06-22T11:35:34;26.70;99.90
3262;DHT22;1643;47.746;9.000;2023-06-22T11:37:59;26.80;99.90
3262;DHT22;1643;47.746;9.000;2023-06-22T11:40:25;26.90;99.90
3262;DHT22;1643;47.746;9.000;2023-06-22T11:42:51;26.90;99.90
3262;DHT22;1643;47.746;9.000;2023-06-22T11:45:17;26.90;99.90
3262;DHT22;1643;47.746;9.000;2023-06-22T11:47:43;26.90;99.90
3262;DHT22;1643;47.746;9.000;2023-06-22T11:50:09;26.80;99.90
3262;DHT22;1643;47.746;9.000;2023-06-22T11:52:35;26.80;99.90
3262;DHT22;1643;47.746;9.000;2023-06-22T11:55:04;26.80;99.90
3262;DHT22;1643;47.746;9.000;2023-06-22T11:57:36;26.80;99.90
3262;DHT22;1643;47.746;9.000;2023-06-22T12:00:03;26.80;99.90
3262;DHT22;1643;47.746;9.000;2023-06-22T12:02:41;26.70;99.90
3262;DHT22;1643;47.746;9.000;2023-06-22T12:05:07;26.60;99.90
3262;DHT22;1643;47.746;9.000;2023-06-22T12:07:33;26.60;99.90
3262;DHT22;1643;47.746;9.000;2023-06-22T12:09:59;26.70;99.90
3262;DHT22;1643;47.746;9.000;2023-06-22T12:12:24;26.70;99.90
3262;DHT22;1643;47.746;9.000;2023-06-22T12:14:50;26.70;99.90
3262;DHT22;1643;47.746;9.000;2023-06-22T12:17:15;26.80;99.90
3262;DHT22;1643;47.746;9.000;2023-06-22T12:19:41;26.90;99.90
3262;DHT22;1643;47.746;9.000;2023-06-22T12:22:07;27.00;99.90
3262;DHT22;1643;47.746;9.000;2023-06-22T12:24:32;27.10;99.90
3262;DHT22;1643;47.746;9.000;2023-06-22T12:26:58;27.10;99.90
3262;DHT22;1643;47.746;9.000;2023-06-22T12:29:24;27.20;99.90
3262;DHT22;1643;47.746;9.000;2023-06-22T12:31:49;27.10;99.90
3262;DHT22;1643;47.746;9.000;2023-06-22T12:34:15;27.20;99.90
3262;DHT22;1643;47.746;9.000;2023-06-22T12:36:40;27.10;99.90
3262;DHT22;1643;47.746;9.000;2023-06-22T12:39:06;27.10;99.90
3262;DHT22;1643;47.746;9.000;2023-06-22T12:41:32;27.10;99.90
3262;DHT22;1643;47.746;9.000;2023-06-22T12:43:57;27.10;99.90
3262;DHT22;1643;47.746;9.000;2023-06-22T12:46:23;27.10;99.90
3262;DHT22;1643;47.746;9.000;2023-06-22T12:48:49;27.20;99.90
3262;DHT22;1643;47.746;9.000;2023-06-22T12:51:21;27.20;99.90
3262;DHT22;1643;47.746;9.000;2023-06-22T12:53:47;27.20;99.90
3262;DHT22;1643;47.746;9.000;2023-06-22T12:56:13;27.30;99.90
3262;DHT22;1643;47.746;9.000;2023-06-22T12:58:38;27.30;99.90
3262;DHT22;1643;47.746;9.000;2023-06-22T13:01:04;27.30;99.90
3262;DHT22;1643;47.746;9.000;2023-06-22T13:03:29;27.30;99.90
3262;DHT22;1643;47.746;9.000;2023-06-22T13:05:55;27.40;99.90
3262;DHT22;1643;47.746;9.000;2023-06-22T13:08:21;27.40;99.90
3262;DHT22;1643;47.746;9.000;2023-06-22T13:10:46;27.40;99.90
3262;DHT22;1643;47.746;9.000;2023-06-22T13:13:12;27.50;99.90
3262;DHT22;1643;47.746;9.000;2023-06-22T13:15:38;27.70;99.90
3262;DHT22;1643;47.746;9.000;2023-06-22T13:18:03;27.70;99.90
3262;DHT22;1643;47.746;9.000;2023-06-22T13:20:29;27.80;99.90
3262;DHT22;1643;47.746;9.000;2023-06-22T13:22:55;27.90;99.90
3262;DHT22;1643;47.746;9.000;2023-06-22T13:25:21;28.00;99.90
3262;DHT22;1643;47.746;9.000;2023-06-22T13:27:49;27.90;99.90
3262;DHT22;1643;47.746;9.000;2023-06-22T13:30:15;27.90;99.90
3262;DHT22;1643;47.746;9.000;2023-06-22T13:32:41;27.80;99.90
3262;DHT22;1643;47.746;9.000;2023-06-22T13:35:08;27.70;99.90
3262;DHT22;1643;47.746;9.000;2023-06-22T13:37:35;27.80;99.90
3262;DHT22;1643;47.746;9.000;2023-06-22T13:40:00;28.10;99.90
3262;DHT22;1643;47.746;9.000;2023-06-22T13:42:28;28.20;99.90
3262;DHT22;1643;47.746;9.000;2023-06-22T13:44:54;28.40;99.90
3262;DHT22;1643;47.746;9.000;2023-06-22T13:47:20;28.20;99.90
3262;DHT22;1643;47.746;9.000;2023-06-22T13:49:45;28.20;99.90
3262;DHT22;1643;47.746;9.000;2023-06-22T13:52:11;28.20;99.90
3262;DHT22;1643;47.746;9.000;2023-06-22T13:54:38;28.30;99.90
3262;DHT22;1643;47.746;9.000;2023-06-22T13:57:04;28.50;99.90
3262;DHT22;1643;47.746;9.000;2023-06-22T13:59:30;28.70;99.90
3262;DHT22;1643;47.746;9.000;2023-06-22T14:01:56;28.90;99.90
3262;DHT22;1643;47.746;9.000;2023-06-22T14:04:23;28.90;99.90
3262;DHT22;1643;47.746;9.000;2023-06-22T14:06:49;28.90;99.90
3262;DHT22;1643;47.746;9.000;2023-06-22T14:09:15;29.00;99.90
3262;DHT22;1643;47.746;9.000;2023-06-22T14:11:40;29.00;99.90
3262;DHT22;1643;47.746;9.000;2023-06-22T14:14:06;29.00;99.90
3262;DHT22;1643;47.746;9.000;2023-06-22T14:16:32;29.00;99.90
3262;DHT22;1643;47.746;9.000;2023-06-22T14:19:00;28.80;99.90
3262;DHT22;1643;47.746;9.000;2023-06-22T14:21:26;28.90;99.90
3262;DHT22;1643;47.746;9.000;2023-06-22T14:23:52;28.90;99.90
3262;DHT22;1643;47.746;9.000;2023-06-22T14:26:18;29.00;99.90
3262;DHT22;1643;47.746;9.000;2023-06-22T14:28:45;28.90;99.90
3262;DHT22;1643;47.746;9.000;2023-06-22T14:31:14;28.80;99.90
3262;DHT22;1643;47.746;9.000;2023-06-22T14:33:40;28.80;99.90
3262;DHT22;1643;47.746;9.000;2023-06-22T14:36:06;28.70;99.90
3262;DHT22;1643;47.746;9.000;2023-06-22T14:38:31;28.70;99.90
3262;DHT22;1643;47.746;9.000;2023-06-22T14:40:57;28.70;99.90
3262;DHT22;1643;47.746;9.000;2023-06-22T14:43:22;28.60;99.70
3262;DHT22;1643;47.746;9.000;2023-06-22T14:45:48;28.40;99.90
3262;DHT22;1643;47.746;9.000;2023-06-22T14:48:14;28.30;99.90
3262;DHT22;1643;47.746;9.000;2023-06-22T14:50:39;28.10;99.90
3262;DHT22;1643;47.746;9.000;2023-06-22T14:53:05;28.00;99.90
3262;DHT22;1643;47.746;9.000;2023-06-22T14:55:30;27.90;99.90
3262;DHT22;1643;47.746;9.000;2023-06-22T14:57:56;27.90;99.90
3262;DHT22;1643;47.746;9.000;2023-06-22T15:00:22;27.80;99.90
3262;DHT22;1643;47.746;9.000;2023-06-22T15:02:47;27.80;99.90
3262;DHT22;1643;47.746;9.000;2023-06-22T15:05:13;27.80;99.90
3262;DHT22;1643;47.746;9.000;2023-06-22T15:07:39;27.70;99.90
3262;DHT22;1643;47.746;9.000;2023-06-22T15:10:05;27.70;99.90
3262;DHT22;1643;47.746;9.000;2023-06-22T15:12:31;27.80;99.90
3262;DHT22;1643;47.746;9.000;2023-06-22T15:14:56;27.70;99.90
3262;DHT22;1643;47.746;9.000;2023-06-22T15:17:22;27.60;99.90
3262;DHT22;1643;47.746;9.000;2023-06-22T15:33:33;27.40;99.90
3262;DHT22;1643;47.746;9.000;2023-06-22T15:36:19;27.40;99.90
3262;DHT22;1643;47.746;9.000;2023-06-22T15:38:53;27.40;99.90
3262;DHT22;1643;47.746;9.000;2023-06-22T15:41:19;27.40;99.90
3262;DHT22;1643;47.746;9.000;2023-06-22T15:46:42;27.60;99.90
3262;DHT22;1643;47.746;9.000;2023-06-22T15:49:08;27.50;99.90
3262;DHT22;1643;47.746;9.000;2023-06-22T15:51:33;27.60;99.90
3262;DHT22;1643;47.746;9.000;2023-06-22T15:53:59;27.50;99.90
3262;DHT22;1643;47.746;9.000;2023-06-22T15:56:25;27.60;99.90
3262;DHT22;1643;47.746;9.000;2023-06-22T15:58:50;27.70;99.90
3262;DHT22;1643;47.746;9.000;2023-06-22T16:01:16;27.50;99.90
3262;DHT22;1643;47.746;9.000;2023-06-22T16:03:41;27.40;99.90
3262;DHT22;1643;47.746;9.000;2023-06-22T16:06:07;27.40;99.90
3262;DHT22;1643;47.746;9.000;2023-06-22T16:08:33;27.30;99.90
3262;DHT22;1643;47.746;9.000;2023-06-22T16:10:59;27.20;99.90
3262;DHT22;1643;47.746;9.000;2023-06-22T16:13:25;27.10;99.90
3262;DHT22;1643;47.746;9.000;2023-06-22T16:15:51;27.10;99.90
3262;DHT22;1643;47.746;9.000;2023-06-22T16:18:17;26.90;99.90